createdAt,value
2019-04-23T00:01:08.905Z,12.31
2019-04-23T00:03:30.570Z,12.30
2019-04-23T00:06:08.532Z,12.24
2019-04-23T00:08:36.543Z,12.26
2019-04-23T00:11:09.929Z,12.27
2019-04-23T00:13:37.119Z,12.26
2019-04-23T00:18:42.265Z,12.19
2019-04-23T00:21:20.692Z,12.17
2019-04-23T00:24:03.079Z,12.13
2019-04-23T00:26:30.657Z,12.14
2019-04-23T00:28:58.873Z,12.13
2019-04-23T00:31:35.067Z,12.12
2019-04-23T00:34:01.118Z,12.09
2019-04-23T00:36:47.610Z,12.10
2019-04-23T00:39:17.348Z,12.11
2019-04-23T00:41:36.252Z,12.10
2019-04-23T00:44:09.226Z,12.05
2019-04-23T00:51:48.253Z,11.99
2019-04-23T00:54:24.086Z,11.93
2019-04-23T00:59:23.213Z,11.88
2019-04-23T01:01:56.908Z,11.90
2019-04-23T01:04:27.411Z,11.93
2019-04-23T01:07:02.550Z,11.86
2019-04-23T01:09:39.025Z,11.84
2019-04-23T01:12:06.094Z,11.84
2019-04-23T01:14:33.913Z,11.80
2019-04-23T01:17:11.379Z,11.73
2019-04-23T01:19:58.022Z,11.71
2019-04-23T01:22:06.466Z,11.69
2019-04-23T01:25:08.763Z,11.63
2019-04-23T01:30:34.373Z,11.66
2019-04-23T01:33:03.873Z,11.69
2019-04-23T01:35:36.030Z,11.64
2019-04-23T01:38:06.141Z,11.68
2019-04-23T01:43:08.004Z,11.66
2019-04-23T01:45:34.307Z,11.64
2019-04-23T01:48:12.871Z,11.59
2019-04-23T01:50:57.596Z,11.53
2019-04-23T01:53:19.490Z,11.53
2019-04-23T01:55:54.470Z,11.56
2019-04-23T01:58:40.277Z,11.52
2019-04-23T02:01:00.726Z,11.51
2019-04-23T02:03:34.500Z,11.44
2019-04-23T02:08:32.333Z,11.40
2019-04-23T02:11:19.969Z,11.39
2019-04-23T02:13:38.358Z,11.39
2019-04-23T02:16:25.887Z,11.38
2019-04-23T02:18:43.927Z,11.39
2019-04-23T02:21:13.660Z,11.36
2019-04-23T02:23:47.958Z,11.38
2019-04-23T02:26:26.358Z,11.38
2019-04-23T02:29:06.710Z,11.35
2019-04-23T02:34:14.339Z,11.39
2019-04-23T02:36:39.972Z,11.35
2019-04-23T02:39:13.034Z,11.34
2019-04-23T02:46:56.799Z,11.28
2019-04-23T02:51:51.006Z,11.31
2019-04-23T02:56:51.518Z,11.28
2019-04-23T02:59:32.694Z,11.28
2019-04-23T03:02:12.021Z,11.25
2019-04-23T03:07:01.353Z,11.26
2019-04-23T03:09:43.213Z,11.22
2019-04-23T03:12:05.874Z,11.20
2019-04-23T03:14:34.328Z,11.16
2019-04-23T03:17:03.428Z,11.04
2019-04-23T03:20:15.821Z,10.99
2019-04-23T03:22:58.958Z,10.99
2019-04-23T03:25:36.223Z,10.94
2019-04-23T03:28:23.055Z,10.94
2019-04-23T03:38:43.420Z,10.77
2019-04-23T03:41:15.727Z,10.80
2019-04-23T03:43:38.968Z,10.82
2019-04-23T03:46:16.354Z,10.83
2019-04-23T03:48:54.869Z,10.78
2019-04-23T03:51:16.680Z,10.78
2019-04-23T03:53:52.281Z,10.83
2019-04-23T03:56:22.393Z,10.83
2019-04-23T03:58:47.400Z,10.76
2019-04-23T04:09:14.916Z,10.67
2019-04-23T04:11:25.480Z,10.60
2019-04-23T04:16:51.775Z,10.55
2019-04-23T04:22:04.753Z,10.57
2019-04-23T04:29:40.358Z,10.50
2019-04-23T04:32:00.350Z,10.52
2019-04-23T04:39:44.431Z,10.51
2019-04-23T04:42:28.545Z,10.55
2019-04-23T04:47:19.808Z,10.64
2019-04-23T04:54:44.417Z,10.69
2019-04-23T05:00:06.758Z,10.72
2019-04-23T05:05:46.321Z,10.76
2019-04-23T05:12:45.268Z,10.95
2019-04-23T05:18:00.024Z,11.12
2019-04-23T05:23:09.193Z,11.06
2019-04-23T05:25:17.978Z,11.11
2019-04-23T05:28:02.844Z,11.25
2019-04-23T05:33:07.953Z,11.31
2019-04-23T05:36:02.034Z,11.41
2019-04-23T05:40:44.964Z,11.49
2019-04-23T05:43:15.858Z,11.53
2019-04-23T05:45:41.363Z,11.61
2019-04-23T05:48:21.560Z,11.61
2019-04-23T05:50:59.279Z,11.70
2019-04-23T05:53:18.603Z,11.77
2019-04-23T05:55:56.828Z,11.74
2019-04-23T05:58:31.521Z,11.75
2019-04-23T06:09:20.384Z,12.08
2019-04-23T06:11:58.594Z,12.16
2019-04-23T06:14:41.061Z,12.18
2019-04-23T06:17:00.477Z,12.22
2019-04-23T06:19:45.963Z,12.28
2019-04-23T06:22:26.853Z,12.41
2019-04-23T06:24:32.995Z,12.49
2019-04-23T06:27:06.721Z,12.57
2019-04-23T06:29:50.145Z,12.64
2019-04-23T06:32:06.523Z,12.70
2019-04-23T06:34:43.550Z,12.75
2019-04-23T06:37:24.480Z,12.84
2019-04-23T06:42:14.462Z,12.99
2019-04-23T06:44:58.447Z,13.05
2019-04-23T06:47:37.403Z,13.11
2019-04-23T06:50:14.827Z,13.18
2019-04-23T06:52:43.874Z,13.26
2019-04-23T06:55:25.506Z,13.37
2019-04-23T06:57:48.084Z,13.43
2019-04-23T07:00:22.257Z,13.56
2019-04-23T07:02:54.215Z,13.66
2019-04-23T07:05:29.762Z,13.71
2019-04-23T07:07:58.343Z,13.82
2019-04-23T07:10:34.813Z,13.92
2019-04-23T07:13:08.239Z,13.98
2019-04-23T07:18:04.036Z,14.08
2019-04-23T07:20:40.291Z,14.15
2019-04-23T07:23:19.659Z,14.19
2019-04-23T07:25:49.936Z,14.25
2019-04-23T07:28:23.387Z,14.35
2019-04-23T07:30:51.577Z,14.46
2019-04-23T07:33:31.114Z,14.52
2019-04-23T07:35:51.919Z,14.60
2019-04-23T07:38:57.870Z,14.67
2019-04-23T07:41:38.054Z,14.76
2019-04-23T07:47:21.307Z,15.00
2019-04-23T07:50:08.047Z,15.09
2019-04-23T07:52:24.196Z,15.16
2019-04-23T07:55:02.377Z,15.22
2019-04-23T07:57:29.166Z,15.33
2019-04-23T08:00:00.960Z,15.49
2019-04-23T08:02:31.415Z,14.69
2019-04-23T08:05:11.249Z,15.60
2019-04-23T08:07:41.102Z,15.67
2019-04-23T08:12:43.787Z,15.85
2019-04-23T08:15:09.107Z,16.21
2019-04-23T08:17:34.690Z,17.84
2019-04-23T08:20:11.245Z,19.01
2019-04-23T08:22:47.499Z,19.55
2019-04-23T08:25:37.206Z,19.86
2019-04-23T08:28:13.646Z,19.74
2019-04-23T08:30:49.586Z,19.58
2019-04-23T08:33:15.765Z,18.95
2019-04-23T08:35:54.316Z,18.66
2019-04-23T08:38:26.119Z,18.36
2019-04-23T08:41:06.035Z,18.38
2019-04-23T08:43:42.723Z,18.43
2019-04-23T08:46:33.064Z,18.47
2019-04-23T08:49:05.982Z,18.62
2019-04-23T08:51:44.538Z,18.52
2019-04-23T08:54:08.724Z,18.70
2019-04-23T08:56:42.825Z,18.86
2019-04-23T08:59:08.234Z,18.99
2019-04-23T09:01:50.666Z,19.02
2019-04-23T09:04:09.338Z,19.01
2019-04-23T09:06:34.975Z,19.14
2019-04-23T09:09:13.184Z,19.32
2019-04-23T09:14:05.303Z,19.37
2019-04-23T09:16:54.452Z,19.28
2019-04-23T09:19:23.499Z,19.25
2019-04-23T09:22:01.980Z,19.29
2019-04-23T09:24:24.234Z,19.32
2019-04-23T09:26:59.007Z,19.32
2019-04-23T09:29:36.585Z,19.53
2019-04-23T09:38:04.129Z,19.91
2019-04-23T09:41:13.033Z,19.76
2019-04-23T09:43:31.584Z,19.73
2019-04-23T09:46:17.663Z,19.48
2019-04-23T09:48:50.964Z,19.59
2019-04-23T09:51:23.536Z,19.60
2019-04-23T09:53:58.014Z,19.63
2019-04-23T09:56:32.410Z,19.66
2019-04-23T09:59:10.935Z,19.74
2019-04-23T10:01:44.126Z,19.84
2019-04-23T10:03:53.382Z,19.94
2019-04-23T10:06:19.137Z,20.05
2019-04-23T10:08:51.389Z,20.02
2019-04-23T10:11:18.161Z,20.05
2019-04-23T10:13:48.497Z,20.00
2019-04-23T10:16:21.363Z,19.94
2019-04-23T10:18:50.996Z,19.75
2019-04-23T10:21:21.481Z,19.80
2019-04-23T10:23:52.762Z,19.88
2019-04-23T10:26:24.043Z,19.88
2019-04-23T10:29:02.125Z,19.78
2019-04-23T10:31:33.352Z,19.85
2019-04-23T10:34:04.416Z,19.85
2019-04-23T10:36:36.175Z,19.94
2019-04-23T10:39:15.512Z,19.74
2019-04-23T10:41:45.199Z,20.16
2019-04-23T10:44:29.136Z,20.23
2019-04-23T10:47:44.711Z,20.06
2019-04-23T10:50:39.986Z,20.03
2019-04-23T10:53:23.451Z,19.92
2019-04-23T10:55:46.860Z,19.72
2019-04-23T10:58:15.808Z,19.75
2019-04-23T11:00:48.917Z,19.81
2019-04-23T11:03:31.790Z,19.80
2019-04-23T11:05:59.079Z,19.80
2019-04-23T11:08:18.774Z,19.80
2019-04-23T11:10:50.337Z,19.79
2019-04-23T11:13:45.275Z,19.75
2019-04-23T11:16:44.736Z,19.80
2019-04-23T11:21:34.567Z,19.68
2019-04-23T11:23:50.185Z,19.80
2019-04-23T11:26:31.960Z,19.85
2019-04-23T11:28:51.990Z,20.01
2019-04-23T11:36:47.879Z,20.23
2019-04-23T11:39:16.752Z,20.15
2019-04-23T11:41:45.637Z,20.20
2019-04-23T11:49:26.624Z,20.36
2019-04-23T11:51:54.006Z,20.39
2019-04-23T11:54:17.514Z,20.37
2019-04-23T11:57:14.119Z,20.43
2019-04-23T11:59:31.951Z,20.28
2019-04-23T12:02:13.572Z,20.29
2019-04-23T12:08:20.628Z,20.45
2019-04-23T12:11:42.602Z,20.49
2019-04-23T12:14:24.220Z,20.30
2019-04-23T12:24:56.849Z,20.79
2019-04-23T12:27:08.151Z,20.65
2019-04-23T12:29:37.356Z,20.57
2019-04-23T12:37:45.012Z,20.78
2019-04-23T12:43:11.973Z,20.96
2019-04-23T12:48:15.623Z,21.18
2019-04-23T12:53:05.747Z,21.37
2019-04-23T12:58:03.824Z,21.41
2019-04-23T13:03:26.101Z,21.53
2019-04-23T13:05:34.461Z,21.34
2019-04-23T13:08:23.345Z,21.39
2019-04-23T13:10:39.928Z,21.36
2019-04-23T13:13:27.963Z,21.28
2019-04-23T13:18:17.590Z,21.52
2019-04-23T13:20:41.944Z,21.59
2019-04-23T13:23:22.308Z,21.59
2019-04-23T13:25:59.606Z,21.64
2019-04-23T13:28:38.763Z,21.59
2019-04-23T13:31:22.620Z,21.57
2019-04-23T13:43:47.933Z,21.33
2019-04-23T13:46:17.784Z,21.36
2019-04-23T13:48:47.039Z,21.38
2019-04-23T13:51:26.270Z,21.45
2019-04-23T13:53:51.341Z,21.38
2019-04-23T13:57:12.716Z,21.28
2019-04-23T13:59:09.616Z,21.44
2019-04-23T14:01:32.385Z,21.41
2019-04-23T14:04:24.498Z,21.44
2019-04-23T14:06:43.065Z,21.53
2019-04-23T14:09:19.946Z,21.41
2019-04-23T14:11:38.623Z,21.35
2019-04-23T14:14:34.454Z,21.46
2019-04-23T14:17:00.200Z,21.41
2019-04-23T14:19:30.183Z,21.40
2019-04-23T14:22:07.097Z,21.39
2019-04-23T14:24:45.805Z,21.39
2019-04-23T14:27:18.142Z,21.37
2019-04-23T14:32:16.004Z,21.42
2019-04-23T14:34:50.934Z,21.37
2019-04-23T14:37:14.888Z,21.44
2019-04-23T14:39:45.846Z,21.93
2019-04-23T14:45:08.075Z,22.62
2019-04-23T14:47:27.974Z,22.19
2019-04-23T14:50:29.320Z,21.61
2019-04-23T14:52:43.485Z,21.36
2019-04-23T14:55:40.311Z,21.26
2019-04-23T14:57:40.334Z,21.27
2019-04-23T15:00:15.609Z,21.31
2019-04-23T15:02:44.975Z,21.30
2019-04-23T15:07:42.206Z,21.24
2019-04-23T15:10:34.779Z,21.31
2019-04-23T15:12:54.010Z,21.25
2019-04-23T15:15:21.122Z,21.23
2019-04-23T15:20:51.787Z,21.21
2019-04-23T15:23:17.011Z,21.12
2019-04-23T15:28:06.841Z,21.17
2019-04-23T15:30:40.106Z,21.22
2019-04-23T15:33:19.837Z,21.15
2019-04-23T15:35:53.298Z,21.01
2019-04-23T15:40:45.665Z,20.90
2019-04-23T15:43:14.588Z,21.02
2019-04-23T15:45:52.523Z,21.17
2019-04-23T15:48:24.049Z,21.35
2019-04-23T15:51:10.091Z,21.40
2019-04-23T15:53:25.029Z,21.34
2019-04-23T15:56:13.731Z,21.06
2019-04-23T15:58:50.604Z,20.92
2019-04-23T16:03:28.991Z,20.78
2019-04-23T16:05:57.465Z,20.77
2019-04-23T16:11:39.501Z,20.60
2019-04-23T16:14:17.684Z,20.52
2019-04-23T16:16:46.210Z,20.50
2019-04-23T16:22:04.669Z,20.39
2019-04-23T16:24:26.410Z,20.34
2019-04-23T16:27:09.316Z,20.28
2019-04-23T16:30:32.567Z,20.28
2019-04-23T16:32:18.866Z,20.26
2019-04-23T16:34:36.586Z,20.21
2019-04-23T16:39:56.531Z,20.07
2019-04-23T16:42:24.850Z,20.04
2019-04-23T16:45:07.579Z,19.99
2019-04-23T16:47:33.213Z,19.89
2019-04-23T16:50:04.477Z,19.85
2019-04-23T16:52:26.198Z,19.83
2019-04-23T16:57:45.886Z,19.78
2019-04-23T17:00:24.481Z,19.75
2019-04-23T17:02:47.586Z,19.72
2019-04-23T17:05:18.021Z,19.68
2019-04-23T17:07:53.344Z,19.64
2019-04-23T17:10:39.684Z,19.61
2019-04-23T17:12:51.879Z,19.56
2019-04-23T17:15:27.491Z,19.32
2019-04-23T17:17:55.702Z,19.46
2019-04-23T17:20:33.865Z,19.44
2019-04-23T17:23:10.618Z,19.35
2019-04-23T17:25:26.446Z,19.29
2019-04-23T17:30:32.353Z,19.23
2019-04-23T17:33:24.057Z,19.20
2019-04-23T17:36:21.061Z,19.16
2019-04-23T17:39:01.369Z,19.09
2019-04-23T17:41:49.561Z,19.01
2019-04-23T17:44:20.392Z,18.97
2019-04-23T17:46:43.178Z,18.91
2019-04-23T17:52:03.135Z,18.79
2019-04-23T17:54:17.867Z,18.74
2019-04-23T17:57:05.509Z,18.70
2019-04-23T18:02:27.068Z,18.65
2019-04-23T18:04:34.750Z,18.57
2019-04-23T18:07:04.561Z,18.50
2019-04-23T18:09:57.038Z,18.46
2019-04-23T18:12:13.460Z,18.40
2019-04-23T18:14:39.253Z,18.38
2019-04-23T18:17:20.823Z,18.30
2019-04-23T18:20:05.305Z,18.24
2019-04-23T18:22:42.205Z,18.18
2019-04-23T18:25:25.842Z,18.10
2019-04-23T18:28:08.887Z,18.06
2019-04-23T18:31:00.641Z,18.00
2019-04-23T18:36:05.329Z,17.88
2019-04-23T18:38:46.629Z,17.85
2019-04-23T18:43:44.679Z,17.73
2019-04-23T18:48:50.495Z,17.60
2019-04-23T18:51:42.174Z,17.60
2019-04-23T18:56:44.681Z,17.49
2019-04-23T18:59:02.420Z,17.46
2019-04-23T19:01:31.071Z,17.40
2019-04-23T19:04:30.568Z,17.36
2019-04-23T19:06:51.298Z,17.30
2019-04-23T19:13:07.186Z,17.26
2019-04-23T19:23:27.306Z,17.08
2019-04-23T19:28:25.628Z,16.95
2019-04-23T19:31:07.549Z,16.93
2019-04-23T19:33:45.384Z,16.91
2019-04-23T19:36:26.006Z,16.88
2019-04-23T19:38:47.385Z,16.78
2019-04-23T19:41:19.455Z,16.70
2019-04-23T19:43:55.576Z,16.67
2019-04-23T19:46:39.748Z,16.64
2019-04-23T19:49:05.767Z,16.64
2019-04-23T19:51:38.979Z,16.60
2019-04-23T19:54:09.527Z,16.58
2019-04-23T19:56:43.176Z,16.58
2019-04-23T19:59:04.946Z,16.53
2019-04-23T20:01:39.963Z,16.54
2019-04-23T20:04:04.463Z,16.50
2019-04-23T20:07:06.174Z,16.46
2019-04-23T20:09:38.393Z,16.41
2019-04-23T20:11:54.850Z,16.39
2019-04-23T20:14:29.590Z,16.32
2019-04-23T20:17:21.371Z,16.31
2019-04-23T20:19:37.690Z,16.31
2019-04-23T20:24:52.603Z,16.25
2019-04-23T20:27:11.851Z,16.16
2019-04-23T20:35:11.321Z,16.07
2019-04-23T20:38:17.281Z,16.00
2019-04-23T20:40:25.774Z,15.96
2019-04-23T20:45:20.339Z,15.88
2019-04-23T20:50:27.646Z,15.86
2019-04-23T20:52:59.840Z,15.84
2019-04-23T21:02:29.999Z,15.71
2019-04-23T21:05:03.557Z,15.72
2019-04-23T21:07:40.611Z,15.68
2019-04-23T21:10:08.933Z,15.67
2019-04-23T21:15:10.204Z,15.55
2019-04-23T21:17:47.511Z,15.54
2019-04-23T21:22:50.401Z,15.47
2019-04-23T21:25:14.832Z,15.46
2019-04-23T21:28:04.307Z,15.46
2019-04-23T21:38:58.560Z,15.34
2019-04-23T21:41:33.305Z,15.33
2019-04-23T21:46:38.252Z,15.29
2019-04-23T21:54:14.957Z,15.22
2019-04-23T21:56:37.138Z,15.14
2019-04-23T22:01:44.939Z,15.15
2019-04-23T22:04:33.142Z,15.11
2019-04-23T22:06:47.776Z,15.11
2019-04-23T22:09:21.849Z,15.06
2019-04-23T22:14:29.085Z,15.02
2019-04-23T22:19:45.371Z,14.94
2019-04-23T22:22:07.726Z,14.97
2019-04-23T22:24:24.889Z,14.97
2019-04-23T22:26:58.182Z,15.00
2019-04-23T22:31:53.714Z,14.97
2019-04-23T22:34:40.303Z,14.94
2019-04-23T22:37:23.554Z,14.95
2019-04-23T22:39:45.811Z,14.87
2019-04-23T22:47:07.127Z,14.84
2019-04-23T22:50:02.201Z,14.82
2019-04-23T22:52:33.881Z,14.77
2019-04-23T22:58:08.068Z,14.70
2019-04-23T23:00:14.359Z,14.70
2019-04-23T23:02:59.513Z,14.64
2019-04-23T23:08:07.851Z,14.57
2019-04-23T23:10:44.198Z,14.53
2019-04-23T23:13:13.807Z,14.54
2019-04-23T23:15:49.343Z,14.48
2019-04-23T23:18:17.950Z,14.50
2019-04-23T23:20:55.338Z,14.48
2019-04-23T23:25:55.415Z,14.46
2019-04-23T23:28:31.446Z,14.43
2019-04-23T23:31:04.099Z,14.47
2019-04-23T23:33:30.224Z,14.43
2019-04-23T23:41:11.383Z,14.35
2019-04-23T23:43:54.928Z,14.28
2019-04-23T23:48:46.040Z,14.27
2019-04-23T23:51:19.050Z,14.26
2019-04-23T23:53:58.735Z,14.25
2019-04-23T23:56:15.834Z,14.27
2019-04-23T23:58:56.963Z,14.21
